Portada
METAR-TAF:

METAR-TAF

Aeroports :

Bermudes, Bermudes

latitud: 32-22N, longitud: 064-41W, altitud: 6 m

Observació

L'informe es va fer fa 59 minuts, a les 07:55 UTC
Vent 10 kt del Oest/Nord-Oest
Temperatura 18°C
Humitat 56%
Pressió 1022 hPa
Visibilitat 10 km o més
Núvols disperses a una alçada de 4300 ft

METAR: TXKF 200755Z 29010KT 9999 SCT043 18/09 Q1022

Hora: 04:54 (08:54 UTC)

Pronòstic

L'informe es va fer fa 3 hores i 12 minuts, a les 05:42 UTC
Pronòstic vàlid del 20 a les 06 UTC al 21 a les 06 UTC
Vent 8 kt del Oest
Visibilitat 10 km o més
Núvols disperses a una alçada de 5000 ft

TAF: TXKF 200542Z 2006/2106 28008KT 9999 SCT050

Observacions i pronòstics meteorològics de més de 4000 aeroports (METAR i TAF).

Les estacions disponibles són els punts grocs i vermells al mapa.

Posi el ratolí al punt desitjat per veure el nom de l'estació.

Feu clic per veure les observacions i els pronòstics meteorològics.

Per canviar el mapa: feu clic els botons verds amb una creu de color negre per apropar; al botó verd amb un guió per allunyar la imatge; o en les fletxes verdes per a mapes adjacents.


METAR-TAF: